Important Message - Daily Racing Form/Affinity Gaming will be permanently shutting down StatFox on 6/30/2024.
Valued StatFox Customers: We are thrilled to refer you to our friends at StatSharp, launching just in time for the 2024 football season! As StatFox closes its doors, we encourage you to bookmark www.statsharp.com and stay tuned for their launch. StatSharp's cutting-edge platform will offer power ratings, game simulations, betting systems, in-depth trends for teams and player, and much more to elevate your sports betting experience. Discover the advanced insights and analytics at StatSharp, with even more precision and innovation.
StatFox.com - Sports Handicapping Community

The Leader In Sports Handicapping

OAKLAND ATHLETICS (60-102)

AMERICAN LEAGUE WEST
 W-LPctUnits
HOUSTON 117-58 0.669 +27.4
LA ANGELS 73-89 0.451 -26.5
OAKLAND 60-102 0.370 -9.8
SEATTLE 92-75 0.551 +7.9
TEXAS 68-94 0.420 -18.6

Starting Pitchers for the 2022 Season
Pitcher W-L TR ERA WHIP H-9 BB-9 SO-9 Units
(R) J KAPRIELIAN 5-9 13-13 4.23 1.34 8.13 3.96 6.58
+7.25
(R) P BLACKBURN 7-6 10-11 4.28 1.26 8.89 2.43 7.19
+3.45
(L) J SEARS 5-3 6-5 4.27 1.44 9.74 3.25 6.15
+3.30
(R) A MARTINEZ 4-6 5-7 6.24 1.53 10.77 2.97 8.27
+0.85
(L) K WALDICHUK 2-2 2-5 4.93 1.21 8.31 2.60 8.57
+0.25
(L) J KOENIG 1-3 2-3 6.39 1.58 9.59 4.62 4.62
-0.10
(L) C IRVIN 9-13 12-18 3.98 1.16 8.65 1.79 6.36
-0.23
(R) A PRUITT 0-0 0-1 0.00 0.00 0.00 0.00 3.60
-1.00
(R) A OLLER 2-8 4-10 6.68 1.59 9.96 4.36 5.73
-2.30
(L) Z LOGUE 2-8 2-8 6.20 1.40 9.67 2.92 6.75
-4.55
(R) D JEFFERIES 1-7 1-7 5.72 1.37 10.53 1.83 6.41
-5.20
Season to Date Statistics for the 2022 Season
  Runs AB Hits EB HR RBI BB SO SB Errors LOB GIDP Avg
OAKLAND 3.51 32.80 7.09 2.49 0.85 3.31 2.67 8.57 0.48 0.61 5.98 0.67 0.216
Opponents 4.75 33.90 8.56 3.30 1.20 4.56 3.10 7.43 0.48 0.50 6.71 0.73 0.252
Margin -1.25 -1.10 -1.47 -0.81 -0.36 -1.25 -0.43 -1.15 0.01 -0.11 0.73 0.06 -0.036

Bullpen Statistics for the 2022 Season
  ERA WHIP IP R ER H HR SO BB W-L SV BSV Pct.
All Games 4.27 1.351 3.56 1.86 1.69 3.35 0.41 1.46 3.34 20-28 34 23 59.65%
Home Games 4.53 1.414 3.73 2.04 1.88 3.69 0.35 1.58 3.30 11-13 16 11 59.26%
Away Games 3.97 1.281 3.38 1.68 1.49 3.00 0.47 1.33 3.38 9-15 18 12 60.00%
Last 7 Games 2.15 1.057 4.19 1.43 1.00 3.14 0.57 1.29 4.00 2-1 1 1 50.00%

Game Log for the 2022 Season Last 20 Games |  All Games YTD
October 2022 ResultsFORAGAINST
DateOpponentPitcherLineOUScoreResOUHBBSOHRHBBSOHR
10-5-22 vs LA ANGELS K WALDICHUK +200 6.5 3-2 Win Un 4 2 8 1 6 1 4 1
10-4-22 vs LA ANGELS C IRVIN +130 7.5 2-1 Win Un 6 6 10 0 7 1 8 0
10-3-22 vs LA ANGELS A MARTINEZ +150 7 5-4 Win Ov 11 4 7 0 8 4 9 0
10-2-22 at SEATTLE J KAPRIELIAN +215 7.5 10-3 Win Ov 12 4 5 4 5 4 14 1
10-1-22 at SEATTLE A OLLER +195 6.5 1-5 Loss Un 2 2 11 0 7 4 9 0
September 2022 ResultsFORAGAINST
DateOpponentPitcherLineOUScoreResOUHBBSOHRHBBSOHR
9-30-22 at SEATTLE K WALDICHUK +210 7 1-2 Loss Un 3 2 6 1 6 3 12 1
9-29-22 at LA ANGELS C IRVIN +235 7 2-4 Loss Un 3 2 10 0 13 2 9 3
9-28-22 at LA ANGELS A MARTINEZ +160 8.5 1-4 Loss Un 5 3 11 0 7 2 10 2
9-27-22 at LA ANGELS J KAPRIELIAN +182 8 3-4 Loss Un 9 2 6 0 12 0 8 0
9-25-22 vs NY METS J SEARS +265 7 4-13 Loss Ov 8 1 10 2 19 3 4 1
9-24-22 vs NY METS K WALDICHUK +330 6.5 10-4 Win Ov 14 6 8 2 9 2 6 2
9-23-22 vs NY METS C IRVIN +200 7 2-9 Loss Ov 6 1 3 1 13 3 6 1
9-22-22 vs SEATTLE A MARTINEZ +215 7 5-9 Loss Ov 9 4 5 0 11 3 8 1
9-21-22 vs SEATTLE J KAPRIELIAN +195 7 2-1 Win Un 6 4 8 0 4 1 7 1
9-20-22 vs SEATTLE J SEARS +205 7 4-1 Win Un 7 4 8 1 1 5 11 0
9-18-22 at HOUSTON K WALDICHUK +265 7.5 2-11 Loss Ov 5 1 12 0 15 3 8 1
9-17-22 at HOUSTON C IRVIN +235 8 8-5 Win Ov 10 4 10 2 10 0 1 4
9-16-22 at HOUSTON A MARTINEZ +275 7 0-5 Loss Un 3 3 16 0 8 3 8 4
9-15-22 at HOUSTON J KAPRIELIAN +250 8 2-5 Loss Un 3 4 16 0 9 4 6 1
9-14-22 at TEXAS J SEARS +150 8.5 8-7 Win Ov 10 5 13 3 10 3 7 3
9-13-22 at TEXAS K WALDICHUK +110 8.5 7-8 Loss Ov 10 1 11 1 11 2 9 3
9-11-22 vs CHI WHITE SOX C IRVIN +150 7.5 10-3 Win Ov 14 2 5 2 4 2 9 0
9-10-22 vs CHI WHITE SOX A MARTINEZ +165 7.5 2-10 Loss Ov 3 1 9 0 20 4 6 1
9-9-22 vs CHI WHITE SOX A PRUITT +155 8 3-5 Loss P 6 3 10 0 7 1 8 1
9-8-22 vs CHI WHITE SOX J SEARS +185 7 2-14 Loss Ov 6 2 13 0 21 3 7 5
9-7-22 vs ATLANTA K WALDICHUK +265 7 3-7 Loss Ov 3 4 16 1 10 1 5 2
9-6-22 vs ATLANTA C IRVIN +200 8 9-10 Loss Ov 9 3 13 3 13 5 6 1
9-4-22 at BALTIMORE A MARTINEZ +175 8.5 5-0 Win Un 11 1 2 2 6 3 6 0
9-3-22 at BALTIMORE A OLLER +195 8.5 1-8 Loss Ov 8 1 10 0 11 4 6 5
9-2-22 at BALTIMORE J SEARS +145 8 2-5 Loss Un 6 1 8 0 9 4 7 0
9-1-22 at WASHINGTON K WALDICHUK -105 8.5 5-7 Loss Ov 11 4 12 1 11 6 13 1
August 2022 ResultsFORAGAINST
DateOpponentPitcherLineOUScoreResOUHBBSOHRHBBSOHR
8-31-22 at WASHINGTON J KAPRIELIAN -110 8.5 1-5 Loss Un 5 4 7 1 9 2 4 1
8-30-22 at WASHINGTON C IRVIN -105 8 10-6 Win Ov 13 6 10 2 11 1 10 2
8-28-22 vs NY YANKEES A MARTINEZ +180 8 4-1 Win Un 8 3 11 0 4 3 9 0
8-27-22 vs NY YANKEES A OLLER +195 8 3-2 Win Un 6 1 8 1 1 3 5 0
8-26-22 vs NY YANKEES J SEARS +215 6.5 2-3 Loss Un 5 2 14 1 9 6 4 1
8-25-22 vs NY YANKEES J KAPRIELIAN +180 7.5 4-13 Loss Ov 8 2 6 1 20 6 7 0
8-24-22 vs MIAMI C IRVIN +115 7 3-2 Win Un 4 2 7 0 5 2 14 1
8-23-22 vs MIAMI Z LOGUE +135 7 3-5 Loss Ov 8 3 5 0 8 1 10 1
8-22-22 vs MIAMI A OLLER +130 7.5 0-3 Loss Un 3 3 8 0 7 6 5 1
8-21-22 vs SEATTLE J SEARS +190 6.5 5-3 Win Ov 12 1 9 0 9 4 6 1
8-20-22 vs SEATTLE J KAPRIELIAN +170 7.5 4-3 Win Un 8 4 10 0 7 4 7 0
8-19-22 vs SEATTLE C IRVIN +120 8 2-10 Loss Ov 6 2 5 0 13 3 5 2
8-18-22 at TEXAS Z LOGUE +170 8 3-10 Loss Ov 5 4 9 1 10 6 5 2
8-17-22 at TEXAS A OLLER +155 9 7-2 Win P 9 3 7 3 6 5 5 0
8-16-22 at TEXAS J SEARS +120 8 5-1 Win Un 11 3 9 2 9 3 6 0
8-15-22 at TEXAS J KAPRIELIAN +145 8 1-2 Loss Un 3 9 5 1 8 3 9 1
8-14-22 at HOUSTON C IRVIN +235 7.5 3-6 Loss Ov 7 5 8 1 9 1 2 1
8-13-22 at HOUSTON Z LOGUE +235 8.5 0-8 Loss Un 5 4 8 0 12 3 4 1
8-12-22 at HOUSTON A OLLER +260 8.5 5-7 Loss Ov 11 4 9 0 11 4 4 1
8-10-22 vs LA ANGELS J SEARS -135 8 4-5 Loss Ov 7 5 7 0 6 2 11 1
8-9-22 vs LA ANGELS J KAPRIELIAN +150 6.5 1-5 Loss Un 6 4 9 1 10 5 8 2
8-8-22 vs LA ANGELS C IRVIN -130 7.5 0-1 Loss Un 2 2 8 0 5 0 7 1
8-7-22 vs SAN FRANCISCO A MARTINEZ +170 7.5 4-6 Loss Ov 9 4 6 1 9 5 11 3
8-6-22 vs SAN FRANCISCO A OLLER +215 7.5 3-7 Loss Ov 10 1 8 1 11 6 4 3
8-4-22 at LA ANGELS P BLACKBURN +105 8 8-7 Win Ov 8 8 10 2 9 2 9 7
8-3-22 at LA ANGELS J KAPRIELIAN +205 7 3-1 Win Un 8 1 9 1 6 2 7 0
8-2-22 at LA ANGELS C IRVIN +110 8 1-3 Loss Un 7 3 8 0 7 2 5 1
July 2022 ResultsFORAGAINST
DateOpponentPitcherLineOUScoreResOUHBBSOHRHBBSOHR
7-31-22 at CHI WHITE SOX A OLLER +240 8 1-4 Loss Un 6 2 10 1 8 0 7 2
7-30-22 at CHI WHITE SOX P BLACKBURN +150 8 2-3 Loss Un 8 1 4 2 9 2 6 1
7-29-22 at CHI WHITE SOX J KAPRIELIAN +175 8 7-3 Win Ov 9 0 11 4 6 1 6 1
7-27-22 vs HOUSTON C IRVIN +185 7 4-2 Win Un 8 1 11 2 5 2 5 1
7-26-22 vs HOUSTON F MONTAS +140 7 5-3 Win Ov 6 4 11 1 7 3 8 1
7-25-22 vs HOUSTON A OLLER +190 8 7-5 Win Ov 10 1 6 2 7 3 7 2
7-24-22 vs TEXAS P BLACKBURN +125 7 8-11 Loss Ov 12 4 7 4 16 3 8 2
7-23-22 vs TEXAS J KAPRIELIAN +125 8 3-1 Win Un 6 4 6 0 7 3 8 0
7-22-22 vs TEXAS C IRVIN -105 7.5 5-4 Win Ov 9 5 6 2 7 2 10 1
7-21-22 vs DETROIT F MONTAS -165 7 5-0 Win Un 10 2 7 1 4 2 12 0
7-21-22 vs DETROIT Z LOGUE +130 7 2-7 Loss Ov 5 3 13 1 10 4 9 1
7-17-22 at HOUSTON A OLLER +230 8.5 4-3 Win Un 8 1 9 1 8 1 8 2
7-16-22 at HOUSTON J KOENIG +280 7.5 0-5 Loss Un 7 1 16 0 6 2 4 1
7-15-22 at HOUSTON C IRVIN +182 8 5-1 Win Un 9 0 9 1 4 3 8 0
7-13-22 at TEXAS P BLACKBURN +170 7.5 2-5 Loss Un 4 1 12 2 4 5 5 0
7-12-22 at TEXAS J KAPRIELIAN +150 8.5 14-7 Win Ov 13 6 10 1 9 4 15 2
7-11-22 at TEXAS A MARTINEZ +160 8.5 8-10 Loss Ov 12 1 5 3 9 6 7 2
7-10-22 vs HOUSTON C IRVIN +155 8 1-6 Loss Un 5 1 10 1 9 3 4 1
7-9-22 vs HOUSTON Z LOGUE +240 8 3-2 Win Un 4 2 3 0 5 2 5 0
7-8-22 vs HOUSTON P BLACKBURN +155 7.5 3-8 Loss Ov 4 1 4 1 14 3 13 2
7-6-22 vs TORONTO J KAPRIELIAN +180 8.5 1-2 Loss Un 4 1 8 1 8 4 4 2
7-5-22 vs TORONTO A MARTINEZ +145 8 5-3 Win P 4 8 5 1 10 0 9 2
7-4-22 vs TORONTO C IRVIN +225 7.5 5-1 Win Un 7 2 6 2 5 0 4 0
7-3-22 at SEATTLE F MONTAS +125 6.5 1-2 Loss Un 4 2 16 1 5 0 10 1
7-2-22 at SEATTLE P BLACKBURN +165 7.5 1-2 Loss Un 4 2 12 0 8 2 8 1
7-1-22 at SEATTLE J KAPRIELIAN +160 8 3-1 Win Un 12 1 6 1 4 5 7 0
June 2022 ResultsFORAGAINST
DateOpponentPitcherLineOUScoreResOUHBBSOHRHBBSOHR
6-30-22 at SEATTLE A MARTINEZ +195 7.5 6-8 Loss Ov 11 2 7 3 9 2 7 2
6-29-22 at NY YANKEES C IRVIN +265 8.5 3-5 Loss Un 9 2 10 0 6 2 6 2
6-28-22 at NY YANKEES F MONTAS +175 7.5 1-2 Loss Un 6 3 7 0 5 2 8 1
6-27-22 at NY YANKEES P BLACKBURN +240 8.5 5-9 Loss Ov 6 2 10 0 8 6 7 2
6-26-22 at KANSAS CITY J KAPRIELIAN +160 8 5-3 Win P 8 1 6 1 6 5 7 0
6-25-22 at KANSAS CITY J KOENIG +155 9.5 9-7 Win Ov 14 5 8 1 10 7 9 2
6-24-22 at KANSAS CITY C IRVIN +130 9 1-3 Loss Un 6 1 8 0 8 2 6 2
6-23-22 vs SEATTLE F MONTAS +105 7 1-2 Loss Un 5 2 12 0 2 6 9 0
6-22-22 vs SEATTLE P BLACKBURN +120 7 0-9 Loss Ov 7 1 7 0 13 5 9 2
6-21-22 vs SEATTLE J KAPRIELIAN +120 8.5 2-8 Loss Ov 7 1 4 1 12 6 9 4
6-19-22 vs KANSAS CITY J KOENIG +135 8 4-0 Win Un 9 0 5 2 3 6 4 0
6-18-22 vs KANSAS CITY C IRVIN -110 8 0-2 Loss Un 2 3 7 0 7 4 12 0
6-17-22 vs KANSAS CITY F MONTAS -155 7 1-5 Loss Un 5 5 16 0 11 5 8 1
6-16-22 at BOSTON P BLACKBURN +160 9 4-3 Win Un 8 0 5 0 11 3 7 0
6-15-22 at BOSTON J KAPRIELIAN +170 9.5 1-10 Loss Ov 7 1 6 1 13 7 7 2
6-14-22 at BOSTON J KOENIG +215 9.5 1-6 Loss Un 4 3 3 1 10 4 6 2
6-12-22 at CLEVELAND C IRVIN +160 8.5 3-6 Loss Ov 8 2 8 3 10 1 4 0
6-11-22 at CLEVELAND F MONTAS +115 7.5 10-5 Win Ov 13 1 10 4 9 1 5 0
6-10-22 at CLEVELAND P BLACKBURN +150 8 2-3 Loss Un 5 3 9 2 7 3 3 1
6-9-22 at CLEVELAND J KAPRIELIAN +165 8.5 4-8 Loss Ov 8 4 6 1 14 3 5 2
6-8-22 at ATLANTA J KOENIG +220 9.5 2-13 Loss Ov 8 2 7 0 13 3 6 4
6-7-22 at ATLANTA C IRVIN +235 9 2-3 Loss Un 5 0 8 0 9 1 12 3
6-5-22 vs BOSTON F MONTAS -110 7 2-5 Loss P 7 1 9 0 7 1 10 2
6-4-22 vs BOSTON P BLACKBURN +130 7.5 0-8 Loss Ov 4 2 10 0 14 4 8 0
6-3-22 vs BOSTON J KAPRIELIAN +150 7 2-7 Loss Ov 6 4 12 0 10 6 5 1
6-1-22 vs HOUSTON C IRVIN +200 7.5 4-5 Loss Ov 4 2 8 1 11 5 3 0
May 2022 ResultsFORAGAINST
DateOpponentPitcherLineOUScoreResOUHBBSOHRHBBSOHR
5-31-22 vs HOUSTON F MONTAS +125 6.5 1-3 Loss Un 8 5 7 0 7 4 9 1
5-30-22 vs HOUSTON P BLACKBURN +140 7.5 1-5 Loss Un 2 3 7 0 6 2 7 3
5-29-22 vs TEXAS J KAPRIELIAN +105 7.5 6-5 Win Ov 14 6 7 0 7 3 4 2
5-28-22 vs TEXAS Z LOGUE -115 8 4-11 Loss Ov 10 2 8 1 18 4 3 3
5-27-22 vs TEXAS C IRVIN +110 7 5-8 Loss Ov 5 3 9 2 13 1 8 0
5-26-22 vs TEXAS F MONTAS -115 6.5 1-4 Loss Un 5 3 6 0 6 2 15 1
5-25-22 at SEATTLE P BLACKBURN +165 7 4-2 Win Un 9 2 12 2 5 6 5 0
5-24-22 at SEATTLE J KAPRIELIAN +170 7.5 7-5 Win Ov 13 2 11 2 9 4 9 1
5-23-22 at SEATTLE Z LOGUE +145 7 6-7 Loss Ov 12 2 7 1 8 5 11 3
5-22-22 at LA ANGELS C IRVIN +185 7.5 1-4 Loss Un 4 1 12 0 10 3 5 2
5-21-22 at LA ANGELS F MONTAS +135 7.5 3-5 Loss Ov 7 3 8 0 8 3 7 2
5-20-22 at LA ANGELS P BLACKBURN +170 7.5 4-2 Win Un 8 2 10 2 6 3 13 0
5-18-22 vs MINNESOTA D JEFFERIES +150 7.5 4-14 Loss Ov 12 0 8 0 14 10 7 0
5-17-22 vs MINNESOTA J KAPRIELIAN -105 7 5-2 Win P 11 4 6 1 7 3 10 2
5-16-22 vs MINNESOTA Z LOGUE +105 7.5 1-3 Loss Un 4 2 6 0 8 3 7 1
5-15-22 vs LA ANGELS F MONTAS +115 7 1-4 Loss Un 5 4 4 0 8 1 15 1
5-14-22 vs LA ANGELS A OLLER +145 8 1-9 Loss Ov 7 2 4 0 9 5 6 2
5-14-22 vs LA ANGELS P BLACKBURN -130 7 4-3 Win P 5 7 4 1 8 6 5 0
5-13-22 vs LA ANGELS D JEFFERIES +135 8 0-2 Loss Un 2 2 6 0 6 0 8 1
5-12-22 at DETROIT J KAPRIELIAN +105 8 5-3 Win P 5 4 5 1 6 3 3 0
5-11-22 at DETROIT Z LOGUE +120 7.5 9-0 Win Ov 11 7 5 0 7 0 7 0
5-10-22 vs DETROIT F MONTAS -105 6.5 0-6 Loss Un 4 3 6 0 12 4 6 1
5-10-22 at DETROIT A MARTINEZ +135 7.5 4-1 Win Un 8 2 13 0 7 2 5 0
5-9-22 at DETROIT P BLACKBURN +105 7 2-0 Win Un 6 2 6 1 4 2 8 0
5-8-22 at MINNESOTA D JEFFERIES +140 7 3-4 Loss P 7 2 10 0 9 1 5 0
5-7-22 at MINNESOTA J KAPRIELIAN +190 7.5 0-1 Loss Un 3 3 15 0 5 2 9 1
5-6-22 at MINNESOTA Z LOGUE +170 7.5 1-2 Loss Un 4 2 11 0 8 4 8 2
5-4-22 vs TAMPA BAY F MONTAS +120 6.5 0-3 Loss Un 4 1 9 0 6 3 7 0
5-3-22 vs TAMPA BAY P BLACKBURN +115 7 7-10 Loss Ov 10 3 8 1 14 3 8 2
5-2-22 vs TAMPA BAY D JEFFERIES +145 6.5 1-6 Loss Ov 2 1 9 0 11 0 8 1
5-1-22 vs CLEVELAND J KAPRIELIAN +110 7 3-7 Loss Ov 6 3 10 0 9 6 6 0
April 2022 ResultsFORAGAINST
DateOpponentPitcherLineOUScoreResOUHBBSOHRHBBSOHR
4-30-22 vs CLEVELAND C IRVIN +140 6.5 1-3 Loss Un 8 1 7 1 9 3 7 0
4-29-22 vs CLEVELAND F MONTAS -150 6.5 8-9 Loss Ov 10 1 9 1 11 5 11 3
4-27-22 at SAN FRANCISCO P BLACKBURN +150 7 1-0 Win Un 7 2 11 1 3 3 7 0
4-26-22 at SAN FRANCISCO D JEFFERIES +225 6.5 2-8 Loss Ov 5 3 15 0 7 3 6 2
4-24-22 vs TEXAS C IRVIN +105 7.5 2-0 Win Un 5 6 9 1 4 2 7 0
4-23-22 vs TEXAS F MONTAS -145 7 0-2 Loss Un 3 2 8 0 5 1 9 0
4-22-22 vs TEXAS A OLLER +130 7.5 1-8 Loss Ov 2 3 10 0 9 5 9 2
4-21-22 vs BALTIMORE P BLACKBURN -130 7 6-4 Win Ov 11 0 7 2 7 1 9 0
4-20-22 vs BALTIMORE D JEFFERIES -120 8 0-1 Loss Un 7 1 11 0 5 1 7 0
4-19-22 vs BALTIMORE C IRVIN -115 8 2-1 Win Un 7 5 7 0 8 3 8 0
4-18-22 vs BALTIMORE F MONTAS -180 7 5-1 Win Un 5 3 4 0 7 3 10 0
4-17-22 at TORONTO A OLLER +235 8.5 3-4 Loss Un 6 3 8 1 7 5 6 0
4-16-22 at TORONTO P BLACKBURN +190 8.5 7-5 Win Ov 9 2 7 2 10 1 11 2
4-15-22 at TORONTO D JEFFERIES +182 9 1-4 Loss Un 6 0 11 0 11 5 5 1
4-14-22 at TAMPA BAY C IRVIN +190 8 6-3 Win Ov 9 3 12 0 6 0 4 1
4-13-22 at TAMPA BAY F MONTAS +170 7.5 4-2 Win Un 5 4 14 1 8 2 8 1
4-12-22 at TAMPA BAY A OLLER +185 8.5 8-9 Loss Ov 8 9 8 1 13 8 11 3
4-11-22 at TAMPA BAY P BLACKBURN +200 8.5 13-2 Win Ov 13 3 8 4 8 1 13 0
4-10-22 at PHILADELPHIA D JEFFERIES +200 8.5 4-1 Win Un 9 3 8 1 3 3 7 1
4-9-22 at PHILADELPHIA C IRVIN +185 9.5 2-4 Loss Un 5 1 12 0 7 4 7 3
4-8-22 at PHILADELPHIA F MONTAS +175 8 5-9 Loss Ov 6 0 11 2 11 5 8 1

Situational Breakdown Summary for the 2022 Season
Situation #G W-L Win % Units ROI Ov-Un-P Under % Over %
All Games  
162 60-102 37.0%
-9.8
-5.9%
72-81-9 52.9% 47.1%
Home Games  
81 29-52 35.8%
-9.9
-11.4%
39-37-5 48.7% 51.3%
Away Games  
81 31-50 38.3%
0.0
0.0%
33-44-4 57.1% 42.9%
NAT Surface  
146 52-94 35.6%
-15.1
-10.0%
63-75-8 54.3% 45.7%
ART Surface  
12 5-7 41.7%
+0.7
+5.4%
6-5-1 45.5% 54.5%
Dome Stadiums  
4 3-1 75.0%
+4.6
+115.0%
3-1-0 25.0% 75.0%
vs RH-Starter  
119 44-75 37.0%
-7.3
-6.0%
54-60-5 52.6% 47.4%
vs LH-Starter  
43 16-27 37.2%
-2.6
-5.7%
18-21-4 53.8% 46.2%
vs AL East  
33 13-20 39.4%
+1.0
+2.9%
13-18-2 58.1% 41.9%
vs AL Central  
33 12-21 36.4%
-6.7
-19.1%
13-15-5 53.6% 46.4%
vs AL West  
76 30-46 39.5%
+2.0
+2.6%
33-41-2 55.4% 44.6%
vs NL East  
16 4-12 25.0%
-4.7
-29.0%
10-6-0 37.5% 62.5%
vs NL West  
4 1-3 25.0%
-1.5
-37.5%
3-1-0 25.0% 75.0%
as Favorite  
21 8-13 38.1%
-8.1
-30.5%
7-11-3 61.1% 38.9%
as Underdog  
141 52-89 36.9%
-1.8
-1.3%
65-70-6 51.9% 48.1%
as (+200 or more) Underdog  
36 11-25 30.6%
-0.1
-0.4%
17-19-0 52.8% 47.2%
1 Run Games  
42 17-25 40.5%
-0.4
-0.9%
12-28-2 70.0% 30.0%
2-3 Run Games  
62 26-36 41.9%
+4.9
+7.8%
21-35-6 62.5% 37.5%
4+ Run Games  
58 17-41 29.3%
-14.4
-23.8%
39-18-1 31.6% 68.4%
Day Games  
72 29-43 40.3%
+2.6
+3.5%
31-36-5 53.7% 46.3%
Night Games  
90 31-59 34.4%
-12.4
-13.4%
41-45-4 52.3% 47.7%
1st Game Doubleheader  
3 1-2 33.3%
-1.1
-31.3%
1-1-1 50.0% 50.0%
2nd Game Doubleheader  
3 2-1 66.7%
+1.4
+37.0%
1-2-0 66.7% 33.3%